Time;durP1;ratioP1;P1;durP2;ratioP2;P2;SDS_P1;SDS_P2;PMS_P1;PMS_P2;Temp;Humidity;BMP_temperature;BMP_pressure;BME280_temperature;BME280_humidity;BME280_pressure;Samples;Min_cycle;Max_cycle;Signal;HPM_P1;HPM_P2
2024/04/19 00:01:04;;;;;;;;;0.00;0.00;;;;;24.49;34.50;102006.19;5184813;27;45011;-77
2024/04/19 00:03:30;;;;;;;;;1.00;0.00;;;;;24.58;34.85;102009.69;5185073;27;43992;-77
2024/04/19 00:05:55;;;;;;;;;0.00;0.00;;;;;24.55;34.71;102001.22;5185131;27;43861;-76
2024/04/19 00:08:20;;;;;;;;;0.00;0.00;;;;;24.36;34.84;101969.47;5184555;27;43842;-76
2024/04/19 00:10:46;;;;;;;;;0.00;0.00;;;;;24.58;35.95;102015.00;5183950;27;45257;-76
2024/04/19 00:13:11;;;;;;;;;2.00;1.00;;;;;24.53;35.58;101998.72;5184835;27;43846;-77
2024/04/19 00:15:38;;;;;;;;;1.00;1.00;;;;;24.49;35.93;101992.06;5184829;27;43765;-76
2024/04/19 00:18:04;;;;;;;;;1.00;1.00;;;;;24.44;35.54;101978.44;5184944;27;43894;-77
2024/04/19 00:20:29;;;;;;;;;0.00;0.00;;;;;24.57;34.83;101993.88;5182684;27;45296;-77
2024/04/19 00:22:55;;;;;;;;;1.00;1.00;;;;;24.57;35.34;101994.72;5184325;27;44129;-77
2024/04/19 00:25:20;;;;;;;;;0.00;0.00;;;;;24.54;35.14;101986.25;5184766;27;44448;-77
2024/04/19 00:27:46;;;;;;;;;0.00;0.00;;;;;24.56;35.79;101984.25;5184684;27;43922;-77
2024/04/19 00:30:11;;;;;;;;;2.00;1.00;;;;;24.44;36.04;101965.13;5182809;27;45929;-77
2024/04/19 00:32:36;;;;;;;;;1.00;1.00;;;;;24.52;36.23;101970.44;5184426;27;43872;-76
2024/04/19 00:35:02;;;;;;;;;1.00;1.00;;;;;24.55;35.39;101971.94;5184894;27;43874;-77
2024/04/19 00:37:27;;;;;;;;;0.00;0.00;;;;;24.32;36.14;101933.59;5184235;27;43983;-76
2024/04/19 00:39:52;;;;;;;;;1.67;1.00;;;;;24.40;36.25;101948.72;5182101;27;44004;-77
2024/04/19 00:42:18;;;;;;;;;2.00;1.00;;;;;24.40;34.99;101941.56;5181105;27;43891;-76
2024/04/19 00:44:43;;;;;;;;;0.00;0.00;;;;;24.54;36.35;101965.78;5184436;27;44004;-76
2024/04/19 00:47:11;;;;;;;;;1.00;0.33;;;;;24.49;35.68;101957.47;5184155;27;43941;-77
2024/04/19 00:49:38;;;;;;;;;2.67;1.00;;;;;24.40;35.88;101946.03;5184278;27;44890;-77
2024/04/19 00:52:07;;;;;;;;;0.33;0.00;;;;;24.47;36.01;101952.34;5184086;27;43933;-77
2024/04/19 00:54:35;;;;;;;;;2.00;0.33;;;;;24.45;35.50;101948.19;5184424;27;44004;-77
2024/04/19 00:57:01;;;;;;;;;0.00;0.00;;;;;24.54;35.66;101968.44;5182675;27;44005;-77
2024/04/19 00:59:27;;;;;;;;;0.67;0.00;;;;;24.54;35.59;101957.00;5184043;27;45762;-77
2024/04/19 01:01:54;;;;;;;;;1.00;1.00;;;;;24.54;34.58;101946.34;5184161;27;43860;-77
2024/04/19 01:04:21;;;;;;;;;1.67;0.33;;;;;24.54;35.02;101947.16;5184176;27;43993;-77
2024/04/19 01:06:46;;;;;;;;;0.00;0.00;;;;;24.50;34.90;101936.03;5183678;27;44028;-76
2024/04/19 01:09:13;;;;;;;;;1.00;1.00;;;;;24.25;35.77;101890.03;5183961;27;44817;-76
2024/04/19 01:11:39;;;;;;;;;2.00;0.33;;;;;24.55;36.32;101932.03;5183805;27;44000;-77
2024/04/19 01:14:04;;;;;;;;;0.00;0.00;;;;;24.44;35.20;101906.63;5184039;27;43940;-77
2024/04/19 01:16:30;;;;;;;;;2.00;0.00;;;;;24.54;36.13;101925.06;5183910;27;44029;-77
2024/04/19 01:18:55;;;;;;;;;0.00;0.00;;;;;24.51;36.43;101923.59;5183892;27;44456;-77
2024/04/19 01:21:21;;;;;;;;;1.00;1.00;;;;;24.51;34.74;101919.06;5183378;27;46274;-77
2024/04/19 01:23:49;;;;;;;;;0.00;0.00;;;;;24.45;35.95;101901.16;5186381;27;43872;-77
2024/04/19 01:26:15;;;;;;;;;1.00;1.00;;;;;24.50;34.73;101900.63;5186504;27;44017;-77
2024/04/19 01:28:40;;;;;;;;;1.00;1.00;;;;;24.37;35.72;101883.38;5186099;27;44898;-76
2024/04/19 01:31:05;;;;;;;;;0.33;0.00;;;;;24.54;35.11;101901.94;5186167;27;43944;-77
2024/04/19 01:33:31;;;;;;;;;0.33;0.00;;;;;24.53;35.23;101897.63;5186475;27;44072;-78
2024/04/19 01:35:56;;;;;;;;;0.00;0.00;;;;;24.42;35.36;101871.38;5185913;27;43923;-77
2024/04/19 01:38:21;;;;;;;;;2.00;0.33;;;;;24.54;34.75;101888.63;5184478;27;45179;-77
2024/04/19 01:40:47;;;;;;;;;0.50;0.50;;;;;24.39;36.02;101854.78;5186236;27;43927;-77
2024/04/19 01:43:12;;;;;;;;;1.00;1.00;;;;;24.22;35.92;101829.22;5186302;27;44002;-77
2024/04/19 01:45:38;;;;;;;;;0.67;0.00;;;;;24.44;34.67;101862.25;5186027;27;43928;-77
2024/04/19 01:48:04;;;;;;;;;0.00;0.00;;;;;24.43;35.26;101849.97;5185948;27;45773;-77
2024/04/19 01:50:29;;;;;;;;;1.00;1.00;;;;;24.44;35.60;101856.09;5185337;27;44032;-78
2024/04/19 01:52:56;;;;;;;;;0.00;0.00;;;;;24.53;35.98;101865.72;5186377;27;43970;-77
2024/04/19 01:55:21;;;;;;;;;0.00;0.00;;;;;24.47;35.47;101853.91;5186077;27;43768;-77
2024/04/19 01:57:47;;;;;;;;;1.00;0.00;;;;;24.52;35.16;101858.72;5185359;27;43971;-77
2024/04/19 02:00:12;;;;;;;;;1.00;1.00;;;;;24.51;36.07;101854.41;5185573;27;43931;-77
2024/04/19 02:02:38;;;;;;;;;1.33;0.00;;;;;24.50;35.64;101860.72;5186022;27;43833;-77
2024/04/19 02:05:03;;;;;;;;;0.00;0.00;;;;;24.32;35.85;101837.84;5185774;27;44004;-78
2024/04/19 02:07:28;;;;;;;;;1.00;0.33;;;;;24.37;35.59;101848.81;5186047;27;44004;-76
2024/04/19 02:09:54;;;;;;;;;1.00;1.00;;;;;24.15;35.15;101811.28;5185967;27;43925;-76
2024/04/19 02:12:19;;;;;;;;;0.00;0.00;;;;;24.45;36.41;101852.44;5186111;27;43972;-77
2024/04/19 02:14:45;;;;;;;;;1.00;1.00;;;;;24.44;35.24;101842.78;5185803;27;43904;-77
2024/04/19 02:17:10;;;;;;;;;1.00;1.00;;;;;24.39;36.20;101843.31;5185705;27;48848;-77
2024/04/19 02:19:36;;;;;;;;;0.67;0.67;;;;;24.34;34.90;101841.16;5185513;27;43999;-77
2024/04/19 02:22:03;;;;;;;;;1.33;0.67;;;;;24.21;35.78;101823.06;5185824;27;43849;-77
2024/04/19 02:24:29;;;;;;;;;1.00;1.00;;;;;24.47;36.46;101843.28;5186095;27;43944;-77
2024/04/19 02:26:54;;;;;;;;;0.33;0.33;;;;;24.48;36.05;101844.13;5185765;27;44780;-76
2024/04/19 02:32:04;;;;;;;;;3.00;1.67;;;;;24.36;34.59;101822.38;5183939;27;44105;-77
2024/04/19 02:34:29;;;;;;;;;0.00;0.00;;;;;24.47;34.93;101829.97;5185676;27;43919;-77
2024/04/19 02:36:55;;;;;;;;;0.67;0.67;;;;;24.40;35.59;101819.22;5185710;27;44015;-77
2024/04/19 02:39:20;;;;;;;;;1.00;1.00;;;;;24.47;35.74;101824.66;5185647;27;43924;-77
2024/04/19 02:41:45;;;;;;;;;0.00;0.00;;;;;24.47;35.46;101822.00;5185892;27;43989;-76
2024/04/19 02:44:11;;;;;;;;;1.00;0.00;;;;;24.45;36.08;101812.53;5185564;27;44219;-75
2024/04/19 02:46:36;;;;;;;;;0.67;0.67;;;;;24.45;35.00;101815.19;5184836;27;44796;-77
2024/04/19 02:49:01;;;;;;;;;2.67;1.00;;;;;24.47;35.50;101824.66;5185493;27;43980;-77
2024/04/19 02:51:27;;;;;;;;;1.00;1.00;;;;;24.39;35.71;101806.06;5185549;27;43905;-77
2024/04/19 02:53:52;;;;;;;;;1.00;1.00;;;;;24.32;35.51;101781.16;5185625;27;43825;-76
2024/04/19 02:56:17;;;;;;;;;0.67;0.67;;;;;24.43;36.12;101790.59;5185515;27;44736;-77
2024/04/19 02:58:43;;;;;;;;;1.00;1.00;;;;;24.46;35.55;101796.38;5185400;27;43684;-77
2024/04/19 03:01:08;;;;;;;;;1.00;1.00;;;;;24.47;35.49;101794.56;5185150;27;43975;-77
2024/04/19 03:03:33;;;;;;;;;0.00;0.00;;;;;24.44;34.82;101792.25;5185666;27;43714;-77
2024/04/19 03:05:59;;;;;;;;;0.00;0.00;;;;;24.47;35.83;101799.88;5185400;27;44813;-76
2024/04/19 03:08:26;;;;;;;;;0.00;0.00;;;;;24.38;35.36;101783.94;5185542;27;43742;-76
2024/04/19 03:10:51;;;;;;;;;0.00;0.00;;;;;24.42;35.40;101783.63;5183602;27;43991;-76
2024/04/19 03:13:17;;;;;;;;;0.00;0.00;;;;;24.29;36.05;101761.91;5185517;27;43851;-77
2024/04/19 03:15:42;;;;;;;;;0.00;0.00;;;;;24.45;35.57;101767.31;5184866;27;45934;-77
2024/04/19 03:18:08;;;;;;;;;1.00;1.00;;;;;24.22;35.05;101749.44;5185377;27;43986;-77
2024/04/19 03:20:33;;;;;;;;;2.00;0.00;;;;;24.45;35.94;101780.63;5185247;27;43845;-77
2024/04/19 03:22:59;;;;;;;;;1.00;1.00;;;;;24.28;34.76;101757.56;5185449;27;43992;-77
2024/04/19 03:25:24;;;;;;;;;0.67;0.67;;;;;24.19;35.39;101745.31;5185273;27;45021;-77
2024/04/19 03:27:50;;;;;;;;;1.33;0.00;;;;;24.33;36.53;101757.06;5183498;27;43881;-76
2024/04/19 03:30:25;;;;;;;;;1.00;1.00;;;;;24.15;36.17;101731.50;5184714;27;43947;-77
2024/04/19 03:32:51;;;;;;;;;0.00;0.00;;;;;24.37;35.17;101757.53;5185347;27;43995;-77
2024/04/19 03:35:16;;;;;;;;;1.00;1.00;;;;;24.17;34.91;101729.50;5184948;27;44650;-77
2024/04/19 03:37:42;;;;;;;;;1.00;1.00;;;;;24.42;36.06;101763.16;5185095;27;43882;-77
2024/04/19 03:40:08;;;;;;;;;0.33;0.33;;;;;24.40;36.17;101754.53;5185277;27;43740;-77
2024/04/19 03:42:36;;;;;;;;;0.00;0.00;;;;;24.38;35.91;101746.72;5185153;27;44007;-77
2024/04/19 03:47:46;;;;;;;;;4.67;1.67;;;;;24.38;35.58;101741.41;5184924;27;43948;-77
2024/04/19 03:50:11;;;;;;;;;0.00;0.00;;;;;24.31;35.38;101729.81;5184879;27;43959;-77
2024/04/19 03:52:37;;;;;;;;;0.00;0.00;;;;;24.30;35.55;101725.50;5185131;27;44001;-78
2024/04/19 03:55:02;;;;;;;;;0.00;0.00;;;;;24.36;35.45;101732.78;5185021;27;43944;-77
2024/04/19 03:57:27;;;;;;;;;0.00;0.00;;;;;24.28;36.40;101723.00;5185043;27;43856;-77
2024/04/19 03:59:53;;;;;;;;;0.00;0.00;;;;;24.32;36.07;101726.16;5184655;27;43865;-76
2024/04/19 04:02:18;;;;;;;;;1.00;1.00;;;;;24.40;36.05;101738.59;5183244;27;43920;-76
2024/04/19 04:04:46;;;;;;;;;0.00;0.00;;;;;24.36;36.55;101731.94;5184827;27;45258;-76
2024/04/19 04:07:12;;;;;;;;;0.00;0.00;;;;;24.32;35.44;101723.50;5184896;27;43864;-76
2024/04/19 04:09:37;;;;;;;;;0.00;0.00;;;;;23.23;35.43;101547.72;5184868;27;43845;-76
2024/04/19 04:12:02;;;;;;;;;0.00;0.00;;;;;24.20;35.54;101699.09;5183154;27;43984;-77
2024/04/19 04:14:28;;;;;;;;;0.00;0.00;;;;;24.29;35.86;101711.38;5184259;27;45876;-77
2024/04/19 04:16:53;;;;;;;;;0.67;0.67;;;;;24.24;35.16;101705.72;5184924;27;44023;-77
2024/04/19 04:19:18;;;;;;;;;0.00;0.00;;;;;24.37;35.52;101717.66;5184888;27;43929;-77
2024/04/19 04:21:44;;;;;;;;;0.00;0.00;;;;;24.38;35.17;101725.44;5184783;27;44036;-78
2024/04/19 04:24:09;;;;;;;;;2.67;1.00;;;;;24.36;34.75;101716.81;5182779;27;47506;-77
2024/04/19 04:26:34;;;;;;;;;1.00;1.00;;;;;24.39;36.18;101720.97;5184704;27;44075;-77
2024/04/19 04:29:00;;;;;;;;;0.00;0.00;;;;;24.39;36.38;101721.78;5184512;27;43968;-78
2024/04/19 04:31:25;;;;;;;;;1.00;1.00;;;;;24.37;34.87;101720.31;5184552;27;43891;-77
2024/04/19 04:33:50;;;;;;;;;1.00;1.00;;;;;24.29;35.12;101715.88;5184537;27;44831;-77
2024/04/19 04:36:16;;;;;;;;;1.00;1.00;;;;;24.40;35.28;101730.59;5184697;27;43951;-77
2024/04/19 04:38:42;;;;;;;;;1.00;1.00;;;;;24.37;35.71;101717.66;5183170;27;43967;-76
2024/04/19 04:41:07;;;;;;;;;0.00;0.00;;;;;24.34;35.72;101721.50;5184561;27;44047;-76
2024/04/19 04:43:32;;;;;;;;;0.00;0.00;;;;;24.27;35.53;101702.75;5184082;27;45115;-76
2024/04/19 04:45:58;;;;;;;;;0.00;0.00;;;;;24.06;35.35;101672.25;5184167;27;43928;-76
2024/04/19 04:48:23;;;;;;;;;0.00;0.00;;;;;24.22;35.12;101689.13;5184432;27;43939;-77
2024/04/19 04:50:48;;;;;;;;;1.00;0.00;;;;;24.30;35.43;101709.56;5184204;27;43983;-75
2024/04/19 04:53:14;;;;;;;;;1.33;0.00;;;;;24.36;35.92;101708.84;5184193;27;44053;-76
2024/04/19 04:55:39;;;;;;;;;0.00;0.00;;;;;24.28;35.25;101692.91;5183669;27;46238;-78
2024/04/19 04:58:05;;;;;;;;;0.00;0.00;;;;;24.35;35.87;101704.53;5182742;27;43828;-77
2024/04/19 05:00:30;;;;;;;;;0.67;0.67;;;;;24.33;34.83;101698.53;5184096;27;44145;-77
2024/04/19 05:02:57;;;;;;;;;0.00;0.00;;;;;24.37;36.00;101699.03;5184168;27;45659;-76
2024/04/19 05:05:23;;;;;;;;;0.00;0.00;;;;;24.36;35.49;101697.38;5182295;27;44134;-75
2024/04/19 05:07:48;;;;;;;;;0.00;0.00;;;;;24.20;36.15;101669.84;5184260;27;43917;-76
2024/04/19 05:10:14;;;;;;;;;1.00;1.00;;;;;24.36;34.74;101697.38;5184009;27;44006;-76
2024/04/19 05:12:39;;;;;;;;;0.00;0.00;;;;;24.35;35.89;101696.56;5183458;27;44783;-76
2024/04/19 05:15:05;;;;;;;;;0.00;0.00;;;;;24.36;36.33;101700.03;5183747;27;45696;-77
2024/04/19 05:17:30;;;;;;;;;0.00;0.00;;;;;24.27;35.68;101683.31;5183983;27;43749;-77
2024/04/19 05:19:55;;;;;;;;;1.00;1.00;;;;;24.34;35.43;101696.72;5184053;27;44144;-77
2024/04/19 05:22:21;;;;;;;;;0.00;0.00;;;;;24.27;35.95;101683.31;5183849;27;44069;-77
2024/04/19 05:24:46;;;;;;;;;0.00;0.00;;;;;24.34;34.83;101694.91;5183712;27;44039;-77
2024/04/19 05:27:11;;;;;;;;;0.00;0.00;;;;;24.28;36.62;101679.63;5183512;27;43875;-76
2024/04/19 05:29:37;;;;;;;;;0.00;0.00;;;;;24.03;35.77;101647.84;5183851;27;44058;-77
2024/04/19 05:32:02;;;;;;;;;0.67;0.00;;;;;24.33;35.81;101693.22;5183534;27;44819;-76
2024/04/19 05:34:28;;;;;;;;;1.00;1.00;;;;;24.08;36.28;101656.13;5183424;27;43978;-76
2024/04/19 05:36:53;;;;;;;;;0.00;0.00;;;;;24.30;35.42;101696.25;5183923;27;43777;-78
2024/04/19 05:39:18;;;;;;;;;1.33;1.00;;;;;24.21;35.71;101681.31;5183601;27;43904;-78
2024/04/19 05:41:44;;;;;;;;;0.67;0.67;;;;;24.22;35.91;101683.81;5182975;27;44727;-76
2024/04/19 05:44:09;;;;;;;;;2.00;0.67;;;;;24.29;35.39;101686.63;5183414;27;43857;-75
2024/04/19 05:46:35;;;;;;;;;0.00;0.00;;;;;24.16;35.28;101668.53;5183042;27;43809;-75
2024/04/19 05:49:00;;;;;;;;;1.00;1.00;;;;;24.29;35.75;101689.28;5183261;27;43932;-76
2024/04/19 05:51:25;;;;;;;;;0.00;0.00;;;;;24.21;35.86;101674.16;5182999;27;45982;-75
2024/04/19 05:53:51;;;;;;;;;2.67;0.33;;;;;24.22;35.85;101664.34;5181365;27;43932;-75
2024/04/19 05:56:16;;;;;;;;;0.33;0.00;;;;;24.21;36.61;101666.19;5182875;27;43856;-76
2024/04/19 05:58:44;;;;;;;;;1.00;1.00;;;;;24.33;36.14;101687.91;5183045;27;43830;-75
2024/04/19 06:01:10;;;;;;;;;2.00;1.00;;;;;24.35;35.62;101680.59;5181040;27;45690;-76
2024/04/19 06:03:35;;;;;;;;;0.67;0.67;;;;;24.20;36.16;101664.50;5182783;27;44135;-75
2024/04/19 06:06:00;;;;;;;;;0.00;0.00;;;;;24.05;35.99;101637.84;5182953;27;43956;-75
2024/04/19 06:08:26;;;;;;;;;1.33;1.00;;;;;24.34;35.10;101673.63;5184295;27;43970;-75
2024/04/19 06:10:51;;;;;;;;;2.00;0.00;;;;;24.35;35.01;101677.09;5185235;27;43963;-75
2024/04/19 06:13:16;;;;;;;;;1.00;1.00;;;;;24.28;35.87;101661.84;5185925;27;44120;-75
2024/04/19 06:15:43;;;;;;;;;0.33;0.33;;;;;24.23;35.89;101655.34;5186061;27;43884;-76
2024/04/19 06:18:09;;;;;;;;;0.00;0.00;;;;;24.32;34.84;101674.78;5186055;27;44156;-75
2024/04/19 06:20:36;;;;;;;;;1.00;0.00;;;;;24.25;35.75;101664.81;5185608;27;45777;-75
2024/04/19 06:23:02;;;;;;;;;0.67;0.00;;;;;24.34;35.75;101680.75;5185878;27;43991;-75
2024/04/19 06:25:27;;;;;;;;;1.00;1.00;;;;;24.34;36.31;101686.91;5185408;27;44048;-75
2024/04/19 06:27:52;;;;;;;;;0.00;0.00;;;;;24.30;35.96;101677.66;5184007;27;44094;-75
2024/04/19 06:30:18;;;;;;;;;0.00;0.00;;;;;24.29;36.46;101675.97;5185784;27;44027;-75
2024/04/19 06:32:43;;;;;;;;;1.00;0.00;;;;;24.34;36.29;101691.41;5183917;27;44388;-75
2024/04/19 06:35:09;;;;;;;;;2.00;1.00;;;;;24.28;36.33;101683.13;5185733;27;44039;-75
2024/04/19 06:37:34;;;;;;;;;0.00;0.00;;;;;24.34;36.05;101686.09;5185752;27;43765;-75
2024/04/19 06:40:00;;;;;;;;;2.00;0.33;;;;;24.11;35.25;101646.97;5185147;27;45001;-75
2024/04/19 06:42:25;;;;;;;;;0.00;0.00;;;;;24.23;35.53;101666.00;5185602;27;43764;-75
2024/04/19 06:44:50;;;;;;;;;0.33;0.00;;;;;24.06;35.30;101643.00;5185857;27;44361;-75
2024/04/19 06:47:16;;;;;;;;;1.00;1.00;;;;;24.15;34.92;101653.56;5185371;27;43797;-76
2024/04/19 06:49:41;;;;;;;;;0.00;0.00;;;;;24.07;35.31;101635.88;5185268;27;45650;-75
2024/04/19 06:52:07;;;;;;;;;2.00;0.67;;;;;24.06;35.57;101643.00;5185576;27;43905;-74
2024/04/19 06:54:33;;;;;;;;;0.67;0.67;;;;;24.20;35.42;101656.53;5183314;27;44336;-75
2024/04/19 06:56:58;;;;;;;;;0.33;0.00;;;;;24.32;36.62;101685.44;5185881;27;43964;-75
2024/04/19 06:59:23;;;;;;;;;0.00;0.00;;;;;24.31;35.32;101675.78;5185303;27;43941;-75
2024/04/19 07:01:49;;;;;;;;;1.67;0.67;;;;;24.32;35.50;101680.13;5185277;27;43884;-75
2024/04/19 07:04:14;;;;;;;;;0.00;0.00;;;;;24.06;36.43;101643.00;5185600;27;43949;-74
2024/04/19 07:06:40;;;;;;;;;1.33;1.00;;;;;24.16;36.02;101648.09;5185434;27;43909;-74
2024/04/19 07:09:05;;;;;;;;;2.00;0.00;;;;;24.19;35.73;101660.22;5185110;27;44139;-75
2024/04/19 07:11:30;;;;;;;;;0.33;0.00;;;;;24.30;35.91;101669.66;5185277;27;44012;-75
2024/04/19 07:13:56;;;;;;;;;0.00;0.00;;;;;24.21;35.60;101662.69;5185455;27;43823;-75
2024/04/19 07:16:21;;;;;;;;;0.67;0.67;;;;;24.30;36.33;101674.97;5183402;27;43856;-75
2024/04/19 07:18:46;;;;;;;;;0.67;0.67;;;;;24.24;36.49;101665.00;5184812;27;44720;-76
2024/04/19 07:21:12;;;;;;;;;0.33;0.33;;;;;24.03;35.20;101630.06;5184226;27;43853;-76
2024/04/19 07:23:37;;;;;;;;;0.00;0.00;;;;;24.24;35.89;101662.34;5183520;27;43892;-75
2024/04/19 07:26:03;;;;;;;;;1.00;1.00;;;;;24.21;35.90;101660.88;5185197;27;43756;-75
2024/04/19 07:28:28;;;;;;;;;0.67;0.00;;;;;24.23;36.40;101666.00;5185194;27;44980;-76
2024/04/19 07:30:53;;;;;;;;;2.00;1.00;;;;;24.29;36.23;101674.16;5185034;27;44001;-75
2024/04/19 07:33:19;;;;;;;;;0.00;0.00;;;;;23.87;36.47;101601.75;5185123;27;43951;-75
2024/04/19 07:35:45;;;;;;;;;0.00;0.00;;;;;24.27;35.54;101670.84;5185145;27;44027;-75
2024/04/19 07:38:11;;;;;;;;;0.67;0.33;;;;;24.26;36.29;101670.97;5184734;27;44897;-75
2024/04/19 07:40:37;;;;;;;;;3.00;1.00;;;;;24.17;35.14;101655.06;5184843;27;44015;-75
2024/04/19 07:43:03;;;;;;;;;1.00;0.00;;;;;24.17;36.70;101647.09;5185224;27;43948;-75
2024/04/19 07:45:29;;;;;;;;;0.00;0.00;;;;;24.16;35.80;101645.44;5184878;27;44022;-75
2024/04/19 07:47:54;;;;;;;;;2.00;0.00;;;;;23.99;36.83;101615.47;5184706;27;44990;-75
2024/04/19 07:50:20;;;;;;;;;0.00;0.00;;;;;24.28;36.49;101651.22;5184769;27;43976;-75
2024/04/19 07:52:49;;;;;;;;;0.67;0.67;;;;;24.27;35.69;101652.22;5184592;27;43907;-75
2024/04/19 07:55:16;;;;;;;;;1.33;0.00;;;;;24.26;36.34;101649.69;5185213;27;43903;-75
2024/04/19 07:57:42;;;;;;;;;1.33;0.00;;;;;24.30;35.85;101651.06;5184730;27;46387;-75
2024/04/19 08:00:15;;;;;;;;;1.00;1.00;;;;;24.17;36.91;101630.31;5210806;27;43889;-75
2024/04/19 08:02:41;;;;;;;;;1.00;1.00;;;;;24.18;35.65;101629.31;5184996;27;44021;-75
2024/04/19 08:05:06;;;;;;;;;2.00;1.00;;;;;24.29;35.86;101652.03;5183292;27;44010;-75
2024/04/19 08:07:31;;;;;;;;;1.00;1.00;;;;;24.23;35.82;101634.94;5184390;27;45631;-75
2024/04/19 08:09:57;;;;;;;;;0.33;0.33;;;;;24.23;36.62;101632.25;5184624;27;43916;-74
2024/04/19 08:12:22;;;;;;;;;2.67;0.00;;;;;24.22;35.25;101633.28;5185003;27;44116;-75
2024/04/19 08:14:48;;;;;;;;;1.00;1.00;;;;;24.29;35.87;101636.91;5184879;27;43917;-75
2024/04/19 08:17:13;;;;;;;;;0.00;0.00;;;;;24.19;35.77;101625.66;5184663;27;45695;-75
2024/04/19 08:19:38;;;;;;;;;1.33;0.00;;;;;24.05;36.51;101603.28;5184923;27;44049;-75
2024/04/19 08:22:04;;;;;;;;;1.33;0.00;;;;;24.15;36.78;101621.66;5184407;27;43968;-80
2024/04/19 08:24:29;;;;;;;;;0.00;0.00;;;;;24.28;36.45;101640.56;5185543;27;43986;-81
2024/04/19 08:26:55;;;;;;;;;3.00;0.00;;;;;24.28;36.04;101645.88;5184691;27;45023;-76
2024/04/19 08:29:21;;;;;;;;;0.00;0.00;;;;;24.28;36.19;101650.38;5184693;27;43907;-76
2024/04/19 08:31:46;;;;;;;;;1.00;1.00;;;;;24.28;36.61;101651.22;5184237;27;43940;-75
2024/04/19 08:34:12;;;;;;;;;2.33;0.00;;;;;24.22;36.15;101643.91;5184796;27;44076;-75
2024/04/19 08:36:37;;;;;;;;;0.67;0.67;;;;;24.25;35.57;101638.22;5184068;27;44789;-76
2024/04/19 08:39:03;;;;;;;;;0.00;0.00;;;;;24.23;36.85;101634.09;5184611;27;43889;-76
2024/04/19 08:41:30;;;;;;;;;0.00;0.00;;;;;24.24;36.33;101638.41;5184688;27;44002;-76
2024/04/19 08:43:59;;;;;;;;;2.33;0.00;;;;;24.27;36.23;101651.41;5184768;27;43862;-74
2024/04/19 08:46:32;;;;;;;;;0.00;0.00;;;;;24.26;36.06;101642.59;5184170;27;43915;-72
2024/04/19 08:49:01;;;;;;;;;1.00;1.00;;;;;24.07;36.74;101607.44;5184100;27;44075;-79
2024/04/19 08:51:27;;;;;;;;;0.67;0.67;;;;;24.22;35.44;101624.47;5184406;27;44089;-79
2024/04/19 08:53:53;;;;;;;;;0.33;0.33;;;;;24.22;36.03;101625.31;5184355;27;43933;-79
2024/04/19 08:56:18;;;;;;;;;0.00;0.00;;;;;24.27;36.40;101627.47;5184321;27;43937;-79
2024/04/19 08:58:44;;;;;;;;;0.00;0.00;;;;;24.17;35.67;101609.84;5184207;27;44035;-79
2024/04/19 09:01:09;;;;;;;;;0.00;0.00;;;;;24.11;36.57;101594.63;5184283;27;43898;-79
2024/04/19 09:03:35;;;;;;;;;1.67;0.00;;;;;24.28;36.76;101629.09;5183823;27;43975;-80
2024/04/19 09:06:00;;;;;;;;;0.00;0.00;;;;;24.27;36.05;101628.28;5184135;27;44656;-79
2024/04/19 09:08:26;;;;;;;;;0.00;0.00;;;;;24.16;36.42;101620.69;5184214;27;43835;-79
2024/04/19 09:10:51;;;;;;;;;0.67;0.00;;;;;24.23;36.77;101612.81;5184288;27;44085;-79
2024/04/19 09:13:17;;;;;;;;;1.33;1.33;;;;;23.90;35.90;101576.66;5184085;27;43856;-79
2024/04/19 09:15:46;;;;;;;;;0.00;0.00;;;;;24.29;36.92;101622.78;5184040;27;45142;-79
2024/04/19 09:18:12;;;;;;;;;0.00;0.00;;;;;24.29;36.55;101625.44;5183472;27;43799;-80
2024/04/19 09:20:46;;;;;;;;;0.00;0.00;;;;;24.29;36.44;101622.78;5183731;27;44204;-79
2024/04/19 09:23:12;;;;;;;;;0.67;0.00;;;;;24.28;36.54;101613.97;5184065;27;43866;-79
2024/04/19 09:25:40;;;;;;;;;0.67;0.67;;;;;24.28;36.40;101626.44;5183701;27;43859;-79
2024/04/19 09:28:09;;;;;;;;;1.00;0.67;;;;;24.11;35.43;101594.63;5183975;27;43963;-79
2024/04/19 09:30:34;;;;;;;;;1.00;1.00;;;;;24.06;36.29;101592.50;5183634;27;44051;-79
2024/04/19 09:32:59;;;;;;;;;1.00;0.00;;;;;24.27;36.05;101622.97;5183351;27;43971;-79
2024/04/19 09:35:27;;;;;;;;;0.00;0.00;;;;;24.24;36.78;101614.47;5183538;27;44954;-80
2024/04/19 09:37:53;;;;;;;;;1.00;1.00;;;;;24.12;36.95;101601.63;5183124;27;43953;-79
2024/04/19 09:40:25;;;;;;;;;0.00;0.00;;;;;23.99;37.01;101582.75;5183560;27;43906;-79
2024/04/19 09:42:51;;;;;;;;;1.00;1.00;;;;;24.29;37.37;101620.13;5183953;27;43899;-79
2024/04/19 09:45:20;;;;;;;;;1.33;0.67;;;;;24.15;37.36;101601.25;5184063;27;44996;-79
2024/04/19 09:47:52;;;;;;;;;0.00;0.00;;;;;24.19;37.08;101612.34;5185500;27;44028;-79
2024/04/19 09:50:19;;;;;;;;;1.00;0.00;;;;;24.29;35.80;101606.84;5185840;27;44081;-78
2024/04/19 09:52:49;;;;;;;;;1.00;1.00;;;;;24.21;36.89;101598.88;5186485;27;43920;-79
2024/04/19 09:55:19;;;;;;;;;2.00;1.33;;;;;24.12;36.68;101593.63;5185814;27;45511;-79
2024/04/19 09:57:48;;;;;;;;;2.00;1.00;;;;;24.29;37.34;101622.78;5186120;27;43798;-80
2024/04/19 10:00:17;;;;;;;;;1.00;1.00;;;;;24.06;36.63;101579.22;5186004;27;43889;-80
2024/04/19 10:02:44;;;;;;;;;1.33;1.00;;;;;24.05;36.54;101579.38;5185604;27;43876;-79
2024/04/19 10:05:10;;;;;;;;;0.67;0.67;;;;;24.27;36.99;101611.50;5185820;27;43947;-79
2024/04/19 10:07:39;;;;;;;;;1.00;1.00;;;;;24.13;37.43;101589.13;5186007;27;43963;-80
2024/04/19 10:10:05;;;;;;;;;0.33;0.33;;;;;24.26;36.83;101607.16;5186047;27;43972;-80
2024/04/19 10:12:33;;;;;;;;;0.00;0.00;;;;;24.21;36.67;101597.06;5185990;27;43880;-80
2024/04/19 10:14:58;;;;;;;;;0.00;0.00;;;;;24.25;37.25;101594.88;5186194;27;43940;-84
2024/04/19 10:17:24;;;;;;;;;0.00;0.00;;;;;24.03;36.83;101573.41;5186519;27;43983;-83
2024/04/19 10:19:50;;;;;;;;;1.00;1.00;;;;;24.17;37.24;101593.09;5186224;27;43924;-83
2024/04/19 10:22:22;;;;;;;;;1.00;1.00;;;;;24.12;36.81;101579.50;5184290;27;43948;-79
2024/04/19 10:24:56;;;;;;;;;1.00;1.00;;;;;24.26;37.27;101593.84;5185611;27;44757;-82
2024/04/19 10:27:26;;;;;;;;;3.33;1.33;;;;;24.28;36.10;101607.81;5183809;27;43984;-77
2024/04/19 10:29:51;;;;;;;;;1.00;1.00;;;;;24.27;36.38;101612.34;5184360;27;43936;-76
2024/04/19 10:32:18;;;;;;;;;0.00;0.00;;;;;24.16;36.76;101599.41;5185476;27;43923;-76
2024/04/19 10:34:44;;;;;;;;;0.00;0.00;;;;;24.11;36.93;101589.31;5184285;27;44952;-77
2024/04/19 10:37:09;;;;;;;;;1.00;1.00;;;;;24.21;36.88;101604.19;5184805;27;44037;-78
2024/04/19 10:39:35;;;;;;;;;0.33;0.33;;;;;24.18;37.55;101602.72;5185658;27;43945;-77
2024/04/19 10:42:01;;;;;;;;;0.00;0.00;;;;;24.28;36.67;101611.31;5185330;27;43988;-77
2024/04/19 10:44:28;;;;;;;;;0.00;0.00;;;;;24.23;37.26;101603.00;5185357;27;43987;-75
2024/04/19 10:46:53;;;;;;;;;0.50;0.50;;;;;24.24;36.69;101609.16;5184995;27;43890;-76
2024/04/19 10:49:22;;;;;;;;;4.00;2.00;;;;;24.28;36.55;101624.63;5181039;27;43956;-75
2024/04/19 10:51:51;;;;;;;;;1.00;1.00;;;;;24.21;37.61;101609.50;5183687;27;43876;-75
2024/04/19 10:54:17;;;;;;;;;1.00;1.00;;;;;24.31;36.85;101625.25;5185140;27;45915;-75
2024/04/19 10:56:43;;;;;;;;;1.33;0.33;;;;;23.84;36.32;101552.44;5185187;27;43884;-76
2024/04/19 10:59:08;;;;;;;;;0.33;0.33;;;;;24.32;37.79;101634.91;5184856;27;43890;-76
2024/04/19 11:01:35;;;;;;;;;2.00;1.00;;;;;24.22;37.62;101614.69;5176024;27;43956;-76
2024/04/19 11:04:00;;;;;;;;;1.67;0.00;;;;;24.32;37.68;101622.44;5171523;27;44462;-76
2024/04/19 11:06:28;;;;;;;;;2.00;0.33;;;;;24.33;37.58;101631.25;5171511;27;44490;-76
2024/04/19 11:08:54;;;;;;;;;5.00;1.00;;;;;24.26;38.03;101609.81;5171533;27;44345;-76
2024/04/19 11:11:19;;;;;;;;;1.00;1.00;;;;;24.25;37.45;101614.28;5170918;27;43960;-75
2024/04/19 11:13:45;;;;;;;;;1.00;0.33;;;;;24.35;36.86;101622.09;5169315;27;44666;-75
2024/04/19 11:16:10;;;;;;;;;0.00;0.00;;;;;24.35;36.89;101618.59;5170557;27;44100;-76
2024/04/19 11:18:36;;;;;;;;;2.00;0.67;;;;;24.14;36.72;101581.00;5169416;27;44560;-76
2024/04/19 11:21:02;;;;;;;;;1.00;1.00;;;;;24.34;37.69;101612.44;5170963;27;44148;-76
2024/04/19 11:23:27;;;;;;;;;1.33;1.00;;;;;24.26;36.88;101591.19;5170732;27;44997;-76